Portada
METAR-TAF:

METAR-TAF

Aeropuertos :

Mécheria, Argelia

latitud: 34-56N, longitud: 000-26W, altitud: 1149 m

Observación

El informe se hizo hace 38 minutos, a las 09:00 UTC
Viento 2 kt con dirección variable
Temperatura 19°C
Humedad 28%
Presión 1023 hPa
Visibilidad 10 km o más
sin nubes por debajo de 1500 m y sin presencia de cumulonimbus.

METAR: DAAY 130900Z VRB02KT CAVOK 19/M00 Q1023

Hora: 10:38 (09:38 UTC)

Pronóstico

El informe se hizo hace 1 hora y 38 minutos, a las 08:00 UTC
Pronóstico válido del 13 a las 09 UTC al 13 a las 18 UTC
Viento 2 kt con dirección variable
Visibilidad 10 km o más
sin nubes por debajo de 1500 m y sin presencia de cumulonimbus.
Evolucionando progresivamente
del 13 a las 11 UTC al 13 a las 13 UTC
Viento 10 kt del noroeste

TAF: DAAY 130800Z 1309/1318 VRB02KT CAVOK BECMG 1311/1313 32010KT

Observaciones y pronósticos meteorológicos de más de 4000 aeropuertos (mensajes METAR y TAF).

Los puntos amarillos y rojos representan las estaciones disponibles.

Ponga el ratón en el punto deseado para ver el nombre de la estación.

Haga clic para ver las observaciones y los pronósticos meteorológicos.

Para cambiar el mapa : haga clic en los botones verdes con una cruz de color negro para hacer un zoom, en el botón verde con un guión para alejar o en las flechas verdes para mapas adyacentes.


METAR-TAF: